createdAt,value
2023-01-31T00:00:35.168Z,8.19
2023-01-31T00:03:23.218Z,8.27
2023-01-31T00:05:51.186Z,8.38
2023-01-31T00:08:18.982Z,8.47
2023-01-31T00:10:46.738Z,8.53
2023-01-31T00:13:14.544Z,8.53
2023-01-31T00:15:42.332Z,8.59
2023-01-31T00:18:10.135Z,8.65
2023-01-31T00:20:38.619Z,8.73
2023-01-31T00:23:06.500Z,8.73
2023-01-31T00:25:34.818Z,8.76
2023-01-31T00:28:02.650Z,8.81
2023-01-31T00:30:30.419Z,8.86
2023-01-31T00:32:58.274Z,8.88
2023-01-31T00:35:26.099Z,8.89
2023-01-31T00:37:53.988Z,8.91
2023-01-31T00:40:21.913Z,8.89
2023-01-31T00:42:49.700Z,8.89
2023-01-31T00:45:17.819Z,8.82
2023-01-31T00:47:45.842Z,8.85
2023-01-31T00:50:15.403Z,8.90
2023-01-31T00:52:43.235Z,8.96
2023-01-31T00:55:11.619Z,8.58
2023-01-31T00:57:39.474Z,7.83
2023-01-31T01:00:07.938Z,7.33
2023-01-31T01:02:36.492Z,7.49
2023-01-31T01:05:05.617Z,7.81
2023-01-31T01:07:34.152Z,8.05
2023-01-31T01:10:02.292Z,8.21
2023-01-31T01:12:30.335Z,8.30
2023-01-31T01:14:58.125Z,8.35
2023-01-31T01:17:26.623Z,8.41
2023-01-31T01:19:54.723Z,8.51
2023-01-31T01:22:22.653Z,8.56
2023-01-31T01:24:50.534Z,8.59
2023-01-31T01:27:18.352Z,8.60
2023-01-31T01:29:46.183Z,8.61
2023-01-31T01:32:14.076Z,8.67
2023-01-31T01:34:41.882Z,8.71
2023-01-31T01:37:12.108Z,8.73
2023-01-31T01:39:40.034Z,8.72
2023-01-31T01:42:17.546Z,8.74
2023-01-31T01:44:45.315Z,8.77
2023-01-31T01:47:35.357Z,8.76
2023-01-31T01:50:44.248Z,8.76
2023-01-31T01:53:16.404Z,8.71
2023-01-31T01:55:50.414Z,8.71
2023-01-31T01:58:27.786Z,8.74
2023-01-31T02:00:56.653Z,8.68
2023-01-31T02:03:26.137Z,8.68
2023-01-31T02:06:01.938Z,8.74
2023-01-31T02:08:33.607Z,8.77
2023-01-31T02:11:11.632Z,8.82
2023-01-31T02:13:41.667Z,8.84
2023-01-31T02:16:15.980Z,8.85
2023-01-31T02:18:46.608Z,8.86
2023-01-31T02:21:33.608Z,8.85
2023-01-31T02:28:24.628Z,8.86
2023-01-31T02:31:15.648Z,8.89
2023-01-31T02:34:07.892Z,8.96
2023-01-31T02:37:10.676Z,8.94
2023-01-31T02:39:54.703Z,8.88
2023-01-31T02:42:42.808Z,8.85
2023-01-31T02:45:31.816Z,8.81
2023-01-31T02:48:15.607Z,8.83
2023-01-31T02:51:17.613Z,8.82
2023-01-31T02:54:06.048Z,8.86
2023-01-31T02:56:39.717Z,8.92
2023-01-31T02:59:27.729Z,8.91
2023-01-31T03:02:01.623Z,8.84
2023-01-31T03:04:36.949Z,8.82
2023-01-31T03:07:27.730Z,8.87
2023-01-31T03:10:44.710Z,8.41
2023-01-31T03:13:36.697Z,7.50
2023-01-31T03:16:50.195Z,7.08
2023-01-31T03:19:26.738Z,7.51
2023-01-31T03:22:07.741Z,7.84
2023-01-31T03:24:42.749Z,8.06
2023-01-31T03:27:15.756Z,8.24
2023-01-31T03:29:47.741Z,8.35
2023-01-31T03:32:27.111Z,8.43
2023-01-31T03:34:58.753Z,8.52
2023-01-31T03:37:49.776Z,8.64
2023-01-31T03:40:39.758Z,8.62
2023-01-31T03:43:29.112Z,7.92
2023-01-31T03:46:34.806Z,7.19
2023-01-31T03:49:09.771Z,6.61
2023-01-31T03:51:48.797Z,6.65
2023-01-31T03:54:28.767Z,7.15
2023-01-31T04:04:33.937Z,8.05
2023-01-31T04:07:03.057Z,7.56
2023-01-31T04:09:32.434Z,6.97
2023-01-31T04:12:02.507Z,6.58
2023-01-31T04:14:30.836Z,6.87
2023-01-31T04:16:59.005Z,7.30
2023-01-31T04:19:27.004Z,7.60
2023-01-31T04:21:55.046Z,7.80
2023-01-31T04:24:24.366Z,7.88
2023-01-31T04:26:52.393Z,7.99
2023-01-31T04:29:20.485Z,8.12
2023-01-31T04:31:48.527Z,8.15
2023-01-31T04:34:16.836Z,8.25
2023-01-31T04:36:45.004Z,8.32
2023-01-31T04:39:13.925Z,8.36
2023-01-31T04:41:41.963Z,7.94
2023-01-31T04:44:10.559Z,7.31
2023-01-31T04:46:38.796Z,6.76
2023-01-31T04:49:07.644Z,6.34
2023-01-31T04:51:35.733Z,6.15
2023-01-31T04:54:03.973Z,6.53
2023-01-31T04:56:32.721Z,6.96
2023-01-31T04:59:01.162Z,7.28
2023-01-31T05:01:29.615Z,7.51
2023-01-31T05:03:57.779Z,7.63
2023-01-31T05:06:25.779Z,7.78
2023-01-31T05:08:54.743Z,7.89
2023-01-31T05:11:22.811Z,8.01
2023-01-31T05:13:50.905Z,7.61
2023-01-31T05:16:18.986Z,6.92
2023-01-31T05:18:47.228Z,6.40
2023-01-31T05:21:15.209Z,6.11
2023-01-31T05:23:43.121Z,6.46
2023-01-31T05:26:12.073Z,6.92
2023-01-31T05:28:40.238Z,7.25
2023-01-31T05:31:09.185Z,7.48
2023-01-31T05:33:37.448Z,7.64
2023-01-31T05:36:06.113Z,7.78
2023-01-31T05:38:34.159Z,7.90
2023-01-31T05:41:02.276Z,7.98
2023-01-31T05:43:30.301Z,7.86
2023-01-31T05:45:58.311Z,7.25
2023-01-31T05:48:26.437Z,6.64
2023-01-31T05:50:54.508Z,6.20
2023-01-31T05:53:23.093Z,5.94
2023-01-31T05:55:51.262Z,6.32
2023-01-31T05:58:19.333Z,6.80
2023-01-31T06:00:47.460Z,7.15
2023-01-31T06:03:15.763Z,7.37
2023-01-31T06:05:43.959Z,7.53
2023-01-31T06:08:11.929Z,7.73
2023-01-31T06:10:39.995Z,7.92
2023-01-31T06:13:07.966Z,8.06
2023-01-31T06:15:37.985Z,7.70
2023-01-31T06:18:05.963Z,7.10
2023-01-31T06:20:33.917Z,6.53
2023-01-31T06:23:01.863Z,6.13
2023-01-31T06:25:29.806Z,5.94
2023-01-31T06:27:58.039Z,6.36
2023-01-31T06:30:26.355Z,6.85
2023-01-31T06:32:54.412Z,7.19
2023-01-31T06:35:22.659Z,7.46
2023-01-31T06:37:50.927Z,7.68
2023-01-31T06:40:18.999Z,7.82
2023-01-31T06:42:47.069Z,7.94
2023-01-31T06:45:15.144Z,8.01
2023-01-31T06:47:45.688Z,7.54
2023-01-31T06:50:13.763Z,6.94
2023-01-31T06:52:42.016Z,6.48
2023-01-31T06:55:11.654Z,6.12
2023-01-31T06:57:47.609Z,5.97
2023-01-31T07:00:16.780Z,6.41
2023-01-31T07:02:46.273Z,6.89
2023-01-31T07:05:15.511Z,7.25
2023-01-31T07:07:43.454Z,7.51
2023-01-31T07:10:12.390Z,7.73
2023-01-31T07:12:41.337Z,7.88
2023-01-31T07:15:11.286Z,7.61
2023-01-31T07:17:39.553Z,7.05
2023-01-31T07:20:08.749Z,6.56
2023-01-31T07:22:36.893Z,6.17
2023-01-31T07:25:05.807Z,5.97
2023-01-31T07:27:33.868Z,6.36
2023-01-31T07:30:02.070Z,6.89
2023-01-31T07:32:31.323Z,7.31
2023-01-31T07:34:59.415Z,7.64
2023-01-31T07:37:27.582Z,7.91
2023-01-31T07:39:55.776Z,8.08
2023-01-31T07:42:23.764Z,8.24
2023-01-31T07:44:51.823Z,8.30
2023-01-31T07:47:19.854Z,7.80
2023-01-31T07:49:50.712Z,7.23
2023-01-31T07:52:18.762Z,6.76
2023-01-31T07:54:47.243Z,6.43
2023-01-31T07:57:17.901Z,6.23
2023-01-31T07:59:46.055Z,6.48
2023-01-31T08:02:35.315Z,7.01
2023-01-31T08:05:04.416Z,7.50
2023-01-31T08:07:32.986Z,7.72
2023-01-31T08:10:10.512Z,7.93
2023-01-31T08:12:38.555Z,7.90
2023-01-31T08:15:07.366Z,7.34
2023-01-31T08:17:35.326Z,6.89
2023-01-31T08:20:03.894Z,6.57
2023-01-31T08:22:31.963Z,6.32
2023-01-31T08:25:00.251Z,6.22
2023-01-31T08:27:28.416Z,6.69
2023-01-31T08:29:56.422Z,7.25
2023-01-31T08:32:24.404Z,7.68
2023-01-31T08:34:52.463Z,7.50
2023-01-31T08:37:20.401Z,7.02
2023-01-31T08:39:48.905Z,6.67
2023-01-31T08:42:16.835Z,6.41
2023-01-31T08:44:44.775Z,6.21
2023-01-31T08:47:12.846Z,6.16
2023-01-31T08:49:40.865Z,6.63
2023-01-31T08:52:08.690Z,7.19
2023-01-31T08:54:36.610Z,7.71
2023-01-31T08:57:04.549Z,8.02
2023-01-31T08:59:32.787Z,7.72
2023-01-31T09:02:00.795Z,7.27
2023-01-31T09:04:29.003Z,6.94
2023-01-31T09:06:57.001Z,6.74
2023-01-31T09:09:26.525Z,6.59
2023-01-31T09:11:54.750Z,6.73
2023-01-31T09:14:22.679Z,7.28
2023-01-31T09:16:50.596Z,7.76
2023-01-31T09:19:18.664Z,7.60
2023-01-31T09:21:46.547Z,7.22
2023-01-31T09:24:14.480Z,6.92
2023-01-31T09:26:42.376Z,6.71
2023-01-31T09:29:10.317Z,6.56
2023-01-31T09:31:38.657Z,6.43
2023-01-31T09:34:06.636Z,6.34
2023-01-31T09:36:34.533Z,6.33
2023-01-31T09:39:02.435Z,6.81
2023-01-31T09:41:37.663Z,7.33
2023-01-31T09:44:12.952Z,7.20
2023-01-31T09:46:45.229Z,6.95
2023-01-31T09:49:26.269Z,6.81
2023-01-31T09:52:00.979Z,6.71
2023-01-31T09:54:35.146Z,6.61
2023-01-31T09:57:12.008Z,6.52
2023-01-31T09:59:45.893Z,6.46
2023-01-31T10:02:38.466Z,6.46
2023-01-31T10:05:29.362Z,6.59
2023-01-31T10:08:15.441Z,7.20
2023-01-31T10:10:52.823Z,7.38
2023-01-31T10:13:30.246Z,7.15
2023-01-31T10:16:24.436Z,6.98
2023-01-31T10:19:01.942Z,6.82
2023-01-31T10:21:36.158Z,6.75
2023-01-31T10:24:11.782Z,6.75
2023-01-31T10:26:45.378Z,6.69
2023-01-31T10:29:21.892Z,6.63
2023-01-31T10:31:59.006Z,6.55
2023-01-31T10:34:48.814Z,6.48
2023-01-31T10:37:27.703Z,6.47
2023-01-31T10:40:06.401Z,6.47
2023-01-31T10:42:38.291Z,6.39
2023-01-31T10:45:13.581Z,6.33
2023-01-31T10:47:56.794Z,6.43
2023-01-31T10:50:33.709Z,7.04
2023-01-31T10:53:15.434Z,7.63
2023-01-31T10:56:13.526Z,7.91
2023-01-31T10:58:41.632Z,7.53
2023-01-31T11:01:12.359Z,7.27
2023-01-31T11:03:46.063Z,7.08
2023-01-31T11:06:14.397Z,6.95
2023-01-31T11:08:50.546Z,6.86
2023-01-31T11:11:21.988Z,6.82
2023-01-31T11:14:07.521Z,6.75
2023-01-31T11:16:39.775Z,6.67
2023-01-31T11:19:23.402Z,6.65
2023-01-31T11:21:53.524Z,6.60
2023-01-31T11:24:24.155Z,6.57
2023-01-31T11:26:55.741Z,6.54
2023-01-31T11:29:49.211Z,6.51
2023-01-31T11:32:23.738Z,6.51
2023-01-31T11:34:58.159Z,6.49
2023-01-31T11:37:27.721Z,6.44
2023-01-31T11:40:22.376Z,6.41
2023-01-31T11:43:22.788Z,6.41
2023-01-31T11:45:59.272Z,6.42
2023-01-31T11:48:39.739Z,6.43
2023-01-31T11:51:08.567Z,6.48
2023-01-31T11:53:49.709Z,6.53
2023-01-31T11:56:19.917Z,6.53
2023-01-31T11:58:53.167Z,6.53
2023-01-31T12:01:24.343Z,6.58
2023-01-31T12:04:03.231Z,6.55
2023-01-31T12:06:33.625Z,6.56
2023-01-31T12:09:19.299Z,6.59
2023-01-31T12:11:52.214Z,6.55
2023-01-31T12:14:20.163Z,6.52
2023-01-31T12:16:50.261Z,6.52
2023-01-31T12:19:22.590Z,6.52
2023-01-31T12:22:03.969Z,6.53
2023-01-31T12:24:56.676Z,6.48
2023-01-31T12:28:01.486Z,6.46
2023-01-31T12:30:52.363Z,6.43
2023-01-31T12:33:44.748Z,6.41
2023-01-31T12:36:22.965Z,6.41
2023-01-31T12:39:02.849Z,6.40
2023-01-31T12:41:41.440Z,6.42
2023-01-31T12:44:31.030Z,6.42
2023-01-31T12:47:11.433Z,6.36
2023-01-31T12:50:17.894Z,6.31
2023-01-31T12:53:30.189Z,6.28
2023-01-31T12:56:24.602Z,6.31
2023-01-31T12:59:15.045Z,6.33
2023-01-31T13:02:10.501Z,6.31
2023-01-31T13:04:44.442Z,6.25
2023-01-31T13:07:23.278Z,6.19
2023-01-31T13:09:54.272Z,6.17
2023-01-31T13:12:27.613Z,6.13
2023-01-31T13:15:41.067Z,6.13
2023-01-31T13:18:24.497Z,6.09
2023-01-31T13:21:15.239Z,6.05
2023-01-31T13:24:05.508Z,6.03
2023-01-31T13:26:38.227Z,6.01
2023-01-31T13:29:37.401Z,6.00
2023-01-31T13:32:13.650Z,5.93
2023-01-31T13:34:51.908Z,5.90
2023-01-31T13:37:24.133Z,5.90
2023-01-31T13:40:07.660Z,5.86
2023-01-31T13:42:35.869Z,5.84
2023-01-31T13:45:07.913Z,5.82
2023-01-31T13:47:48.057Z,5.79
2023-01-31T13:50:48.996Z,5.77
2023-01-31T13:53:23.296Z,5.74
2023-01-31T13:55:52.766Z,5.68
2023-01-31T13:58:34.422Z,5.61
2023-01-31T14:01:17.960Z,5.52
2023-01-31T14:04:11.166Z,5.45
2023-01-31T14:07:07.741Z,5.41
2023-01-31T14:09:41.705Z,5.36
2023-01-31T14:12:09.728Z,5.29
2023-01-31T14:14:45.246Z,5.22
2023-01-31T14:17:22.451Z,5.16
2023-01-31T14:19:50.511Z,5.11
2023-01-31T14:22:41.531Z,5.10
2023-01-31T14:32:58.288Z,5.07
2023-01-31T14:35:48.379Z,5.06
2023-01-31T14:38:22.620Z,5.02
2023-01-31T14:41:09.091Z,4.98
2023-01-31T14:43:52.214Z,4.97
2023-01-31T14:46:38.214Z,4.95
2023-01-31T14:49:23.893Z,4.90
2023-01-31T14:52:15.725Z,4.87
2023-01-31T14:54:59.083Z,4.83
2023-01-31T14:57:41.079Z,4.78
2023-01-31T15:00:15.276Z,4.75
2023-01-31T15:03:17.906Z,4.71
2023-01-31T15:05:53.172Z,4.67
2023-01-31T15:08:21.149Z,4.63
2023-01-31T15:11:35.358Z,4.60
2023-01-31T15:14:36.528Z,4.56
2023-01-31T15:17:31.642Z,4.54
2023-01-31T15:20:15.317Z,4.51
2023-01-31T15:22:45.529Z,4.49
2023-01-31T15:25:40.201Z,4.45
2023-01-31T15:28:16.013Z,4.41
2023-01-31T15:30:44.999Z,4.38
2023-01-31T15:33:33.033Z,4.34
2023-01-31T15:36:13.499Z,4.29
2023-01-31T15:38:53.922Z,4.26
2023-01-31T15:41:47.893Z,4.22
2023-01-31T15:44:27.799Z,4.15
2023-01-31T15:46:58.268Z,4.10
2023-01-31T15:49:41.711Z,4.05
2023-01-31T15:52:09.596Z,4.00
2023-01-31T15:54:38.491Z,3.97
2023-01-31T15:57:15.998Z,3.94
2023-01-31T15:59:50.507Z,3.90
2023-01-31T16:02:39.512Z,3.88
2023-01-31T16:05:08.421Z,3.85
2023-01-31T16:07:36.507Z,3.83
2023-01-31T16:10:05.078Z,3.82
2023-01-31T16:12:36.629Z,3.81
2023-01-31T16:15:07.977Z,3.80
2023-01-31T16:17:36.063Z,3.78
2023-01-31T16:20:05.683Z,3.76
2023-01-31T16:22:33.712Z,3.82
2023-01-31T16:25:03.961Z,4.36
2023-01-31T16:27:37.393Z,5.05
2023-01-31T16:30:06.495Z,5.62
2023-01-31T16:32:40.313Z,5.93
2023-01-31T16:35:21.409Z,6.07
2023-01-31T16:38:04.365Z,5.69
2023-01-31T16:40:37.433Z,5.21
2023-01-31T16:43:19.335Z,4.87
2023-01-31T16:45:53.754Z,4.61
2023-01-31T16:48:36.697Z,4.42
2023-01-31T16:51:28.603Z,4.25
2023-01-31T16:54:18.279Z,4.11
2023-01-31T16:56:48.392Z,4.00
2023-01-31T16:59:35.013Z,3.92
2023-01-31T17:02:18.489Z,3.84
2023-01-31T17:04:48.884Z,3.76
2023-01-31T17:07:36.999Z,3.70
2023-01-31T17:10:08.242Z,3.75
2023-01-31T17:12:40.464Z,4.31
2023-01-31T17:15:16.456Z,4.91
2023-01-31T17:17:44.752Z,5.38
2023-01-31T17:20:18.343Z,5.72
2023-01-31T17:22:56.886Z,6.01
2023-01-31T17:25:36.544Z,6.26
2023-01-31T17:28:05.916Z,6.36
2023-01-31T17:30:34.949Z,5.97
2023-01-31T17:33:02.965Z,5.49
2023-01-31T17:35:37.999Z,5.14
2023-01-31T17:38:06.479Z,4.86
2023-01-31T17:40:35.409Z,4.67
2023-01-31T17:43:05.096Z,4.50
2023-01-31T17:45:33.361Z,4.34
2023-01-31T17:48:01.552Z,4.22
2023-01-31T17:50:29.707Z,4.11
2023-01-31T17:52:57.792Z,4.01
2023-01-31T17:55:26.159Z,3.91
2023-01-31T17:57:54.226Z,3.90
2023-01-31T18:00:22.395Z,4.36
2023-01-31T18:02:52.528Z,4.93
2023-01-31T18:05:30.199Z,5.37
2023-01-31T18:08:06.389Z,5.72
2023-01-31T18:10:34.453Z,5.99
2023-01-31T18:13:02.521Z,6.22
2023-01-31T18:15:31.098Z,6.32
2023-01-31T18:17:59.220Z,5.95
2023-01-31T18:20:27.265Z,5.50
2023-01-31T18:22:55.312Z,5.16
2023-01-31T18:25:23.800Z,4.91
2023-01-31T18:27:52.094Z,4.72
2023-01-31T18:30:20.142Z,4.57
2023-01-31T18:32:48.219Z,4.42
2023-01-31T18:35:16.292Z,4.36
2023-01-31T18:37:44.350Z,4.78
2023-01-31T18:40:13.036Z,5.31
2023-01-31T18:42:41.024Z,5.73
2023-01-31T18:45:10.775Z,6.01
2023-01-31T18:47:38.994Z,6.21
2023-01-31T18:50:12.412Z,6.40
2023-01-31T18:52:43.980Z,6.57
2023-01-31T18:55:12.219Z,6.76
2023-01-31T18:57:40.475Z,6.90
2023-01-31T19:00:09.307Z,7.03
2023-01-31T19:02:37.397Z,6.93
2023-01-31T19:05:06.163Z,6.41
2023-01-31T19:07:34.781Z,5.90
2023-01-31T19:10:03.264Z,5.52
2023-01-31T19:12:32.751Z,5.22
2023-01-31T19:15:00.777Z,5.07
2023-01-31T19:17:28.853Z,5.43
2023-01-31T19:19:56.808Z,5.90
2023-01-31T19:22:28.527Z,6.27
2023-01-31T19:24:56.994Z,6.55
2023-01-31T19:27:25.653Z,6.73
2023-01-31T19:29:53.558Z,6.89
2023-01-31T19:32:22.580Z,7.00
2023-01-31T19:34:52.481Z,7.13
2023-01-31T19:37:21.715Z,7.28
2023-01-31T19:39:49.788Z,7.38
2023-01-31T19:42:17.862Z,7.47
2023-01-31T19:44:46.552Z,7.57
2023-01-31T19:47:14.533Z,7.64
2023-01-31T19:49:42.477Z,7.46
2023-01-31T19:52:10.477Z,6.88
2023-01-31T19:54:41.589Z,6.37
2023-01-31T19:57:09.561Z,5.99
2023-01-31T19:59:37.600Z,5.75
2023-01-31T20:02:05.642Z,6.06
2023-01-31T20:04:33.701Z,6.49
2023-01-31T20:07:01.760Z,6.78
2023-01-31T20:09:29.808Z,7.02
2023-01-31T20:11:57.885Z,7.26
2023-01-31T20:14:25.970Z,7.39
2023-01-31T20:16:54.171Z,7.48
2023-01-31T20:19:23.145Z,7.61
2023-01-31T20:21:51.201Z,7.70
2023-01-31T20:24:19.568Z,7.76
2023-01-31T20:26:47.673Z,7.79
2023-01-31T20:29:15.715Z,7.84
2023-01-31T20:31:43.873Z,7.89
2023-01-31T20:34:12.053Z,7.92
2023-01-31T20:36:40.024Z,7.85
2023-01-31T20:39:08.301Z,7.33
2023-01-31T20:41:38.320Z,6.74
2023-01-31T20:44:06.594Z,6.30
2023-01-31T20:46:34.765Z,6.03
2023-01-31T20:49:03.045Z,6.28
2023-01-31T20:51:37.352Z,6.68
2023-01-31T20:54:06.255Z,6.98
2023-01-31T20:56:34.422Z,7.17
2023-01-31T20:59:02.493Z,7.31
2023-01-31T21:01:30.631Z,7.38
2023-01-31T21:03:58.741Z,7.48
2023-01-31T21:06:26.739Z,7.54
2023-01-31T21:08:56.759Z,7.59
2023-01-31T21:11:25.100Z,7.64
2023-01-31T21:13:53.171Z,7.64
2023-01-31T21:16:21.785Z,7.69
2023-01-31T21:18:50.042Z,7.79
2023-01-31T21:21:23.582Z,7.83
2023-01-31T21:23:59.727Z,7.87
2023-01-31T21:26:27.902Z,7.91
2023-01-31T21:28:56.152Z,7.94
2023-01-31T21:31:24.578Z,7.98
2023-01-31T21:33:53.067Z,8.02
2023-01-31T21:36:25.781Z,8.03
2023-01-31T21:38:54.772Z,8.03
2023-01-31T21:41:41.493Z,8.02
2023-01-31T21:44:09.650Z,8.04
2023-01-31T21:46:38.136Z,8.09
2023-01-31T21:49:06.332Z,8.14
2023-01-31T21:51:34.586Z,8.18
2023-01-31T21:54:02.927Z,8.18
2023-01-31T21:56:31.003Z,8.17
2023-01-31T21:58:59.428Z,8.18
2023-01-31T22:01:30.094Z,8.21
2023-01-31T22:03:59.444Z,8.22
2023-01-31T22:06:31.684Z,8.20
2023-01-31T22:09:01.499Z,8.18
2023-01-31T22:11:35.400Z,8.15
2023-01-31T22:14:09.137Z,8.04
2023-01-31T22:16:37.332Z,7.99
2023-01-31T22:19:05.491Z,7.97
2023-01-31T22:21:36.239Z,7.97
2023-01-31T22:24:06.791Z,7.99
2023-01-31T22:26:40.942Z,8.00
2023-01-31T22:29:12.148Z,7.98
2023-01-31T22:31:40.649Z,7.95
2023-01-31T22:34:13.038Z,7.93
2023-01-31T22:36:41.488Z,7.93
2023-01-31T22:39:13.309Z,7.96
2023-01-31T22:41:42.402Z,7.95
2023-01-31T22:44:10.944Z,7.96
2023-01-31T22:46:38.927Z,7.97
2023-01-31T22:49:07.126Z,7.95
2023-01-31T22:51:35.212Z,7.92
2023-01-31T22:54:03.465Z,7.91
2023-01-31T22:56:32.865Z,7.88
2023-01-31T22:59:03.602Z,7.85
2023-01-31T23:01:35.145Z,7.81
2023-01-31T23:04:07.272Z,7.80
2023-01-31T23:06:35.897Z,7.80
2023-01-31T23:09:04.345Z,7.82
2023-01-31T23:11:32.555Z,7.86
2023-01-31T23:14:00.711Z,7.88
2023-01-31T23:16:47.260Z,7.88
2023-01-31T23:19:16.498Z,7.86
2023-01-31T23:21:44.835Z,7.79
2023-01-31T23:24:14.974Z,7.82
2023-01-31T23:26:43.633Z,7.89
2023-01-31T23:29:12.112Z,7.93
2023-01-31T23:31:40.334Z,7.92
2023-01-31T23:34:08.505Z,7.94
2023-01-31T23:36:37.552Z,7.95
2023-01-31T23:39:05.940Z,7.97
2023-01-31T23:41:34.017Z,7.98
2023-01-31T23:44:01.964Z,8.00
2023-01-31T23:46:29.843Z,8.05
2023-01-31T23:48:57.824Z,8.07
2023-01-31T23:51:28.591Z,8.07
2023-01-31T23:53:57.177Z,8.10
2023-01-31T23:56:26.650Z,8.12
2023-01-31T23:58:54.577Z,8.07
